createdAt,value
2018-04-23T00:01:52.470Z,16.03
2018-04-23T00:04:20.756Z,18.20
2018-04-23T00:06:48.251Z,11.03
2018-04-23T00:09:15.737Z,14.00
2018-04-23T00:11:43.223Z,12.10
2018-04-23T00:14:11.463Z,10.50
2018-04-23T00:16:38.945Z,11.30
2018-04-23T00:19:07.196Z,13.23
2018-04-23T00:21:34.690Z,14.20
2018-04-23T00:24:02.151Z,14.83
2018-04-23T00:26:30.417Z,13.30
2018-04-23T00:28:57.884Z,13.53
2018-04-23T00:31:25.358Z,11.23
2018-04-23T00:33:52.851Z,10.53
2018-04-23T00:36:20.310Z,12.43
2018-04-23T00:38:47.781Z,13.80
2018-04-23T00:41:15.261Z,9.83
2018-04-23T00:43:43.499Z,13.27
2018-04-23T00:46:10.981Z,13.13
2018-04-23T00:48:38.458Z,14.33
2018-04-23T00:51:05.932Z,11.13
2018-04-23T00:53:39.206Z,14.20
2018-04-23T00:56:06.650Z,14.63
2018-04-23T00:58:34.889Z,13.27
2018-04-23T01:01:02.359Z,13.23
2018-04-23T01:03:29.809Z,14.13
2018-04-23T01:05:57.287Z,18.63
2018-04-23T01:08:24.754Z,14.07
2018-04-23T01:10:52.222Z,12.30
2018-04-23T01:13:20.446Z,10.77
2018-04-23T01:15:47.951Z,14.10
2018-04-23T01:18:15.415Z,13.83
2018-04-23T01:20:43.652Z,16.37
2018-04-23T01:23:11.135Z,13.07
2018-04-23T01:25:39.365Z,11.47
2018-04-23T01:28:06.836Z,13.67
2018-04-23T01:30:34.316Z,13.80
2018-04-23T01:33:01.778Z,10.90
2018-04-23T01:35:30.053Z,15.40
2018-04-23T01:37:57.531Z,11.90
2018-04-23T01:40:25.763Z,13.20
2018-04-23T01:42:54.062Z,20.40
2018-04-23T01:45:21.556Z,16.93
2018-04-23T01:47:49.040Z,12.10
2018-04-23T01:50:16.524Z,12.33
2018-04-23T01:52:43.987Z,14.37
2018-04-23T01:55:11.446Z,14.30
2018-04-23T01:57:38.911Z,15.27
2018-04-23T02:00:06.397Z,15.63
2018-04-23T02:02:33.871Z,15.37
2018-04-23T02:05:01.372Z,13.57
2018-04-23T02:07:28.827Z,10.40
2018-04-23T02:09:56.294Z,11.30
2018-04-23T02:12:23.765Z,16.50
2018-04-23T02:14:52.030Z,16.20
2018-04-23T02:17:20.310Z,15.77
2018-04-23T02:19:48.559Z,11.20
2018-04-23T02:22:16.058Z,10.50
2018-04-23T02:24:44.305Z,12.03
2018-04-23T02:27:11.798Z,11.63
2018-04-23T02:29:39.285Z,10.30
2018-04-23T02:32:06.787Z,16.87
2018-04-23T02:34:35.033Z,19.50
2018-04-23T02:37:02.492Z,12.37
2018-04-23T02:39:29.960Z,10.73
2018-04-23T02:41:57.443Z,17.73
2018-04-23T02:44:25.684Z,14.33
2018-04-23T02:46:53.169Z,16.00
2018-04-23T02:49:21.410Z,13.53
2018-04-23T02:51:48.860Z,13.10
2018-04-23T02:54:16.360Z,13.10
2018-04-23T02:56:44.583Z,11.87
2018-04-23T02:59:12.061Z,16.37
2018-04-23T03:01:39.547Z,11.73
2018-04-23T03:04:07.026Z,13.90
2018-04-23T03:06:35.257Z,14.00
2018-04-23T03:09:02.757Z,13.63
2018-04-23T03:11:30.990Z,13.13
2018-04-23T03:13:58.458Z,13.87
2018-04-23T03:16:25.941Z,16.37
2018-04-23T03:18:54.214Z,13.60
2018-04-23T03:21:22.452Z,16.23
2018-04-23T03:23:49.945Z,11.97
2018-04-23T03:26:18.202Z,14.50
2018-04-23T03:28:45.661Z,16.53
2018-04-23T03:31:13.142Z,14.20
2018-04-23T03:33:40.614Z,13.80
2018-04-23T03:36:08.085Z,14.97
2018-04-23T03:38:35.574Z,15.53
2018-04-23T03:41:03.039Z,16.40
2018-04-23T03:43:30.545Z,15.23
2018-04-23T03:45:58.042Z,17.30
2018-04-23T03:48:25.513Z,21.87
2018-04-23T03:50:52.977Z,14.40
2018-04-23T03:53:20.445Z,15.30
2018-04-23T03:55:47.930Z,14.00
2018-04-23T03:58:15.383Z,12.90
2018-04-23T04:00:42.874Z,17.40
2018-04-23T04:03:10.362Z,16.40
2018-04-23T04:05:37.822Z,16.70
2018-04-23T04:08:05.313Z,16.87
2018-04-23T04:10:33.533Z,17.50
2018-04-23T04:13:12.646Z,14.87
2018-04-23T04:15:51.960Z,14.20
2018-04-23T04:18:40.059Z,23.57
2018-04-23T04:21:07.532Z,19.33
2018-04-23T04:23:35.000Z,19.17
2018-04-23T04:26:03.236Z,15.37
2018-04-23T04:28:31.585Z,18.93
2018-04-23T04:30:59.062Z,13.13
2018-04-23T04:33:26.555Z,16.17
2018-04-23T04:35:54.019Z,12.30
2018-04-23T04:38:22.284Z,15.17
2018-04-23T04:40:49.772Z,15.80
2018-04-23T04:43:17.268Z,19.10
2018-04-23T04:45:44.732Z,24.20
2018-04-23T04:48:12.211Z,17.53
2018-04-23T04:50:39.662Z,19.87
2018-04-23T04:53:07.133Z,18.83
2018-04-23T04:55:34.611Z,12.70
2018-04-23T04:58:02.830Z,14.07
2018-04-23T05:00:30.294Z,17.33
2018-04-23T05:02:57.801Z,15.47
2018-04-23T05:05:26.046Z,15.83
2018-04-23T05:07:53.517Z,24.27
2018-04-23T05:10:21.001Z,16.33
2018-04-23T05:12:48.472Z,16.00
2018-04-23T05:15:15.949Z,18.37
2018-04-23T05:17:43.440Z,16.33
2018-04-23T05:20:10.904Z,15.70
2018-04-23T05:22:39.150Z,17.03
2018-04-23T05:25:06.637Z,14.90
2018-04-23T05:27:34.875Z,16.00
2018-04-23T05:30:02.405Z,17.17
2018-04-23T05:32:29.859Z,10.47
2018-04-23T05:34:57.321Z,17.53
2018-04-23T05:37:24.820Z,19.13
2018-04-23T05:39:52.295Z,23.83
2018-04-23T05:42:19.775Z,15.37
2018-04-23T05:44:47.268Z,13.10
2018-04-23T05:47:14.729Z,14.00
2018-04-23T05:49:42.207Z,13.07
2018-04-23T05:52:09.682Z,20.27
2018-04-23T05:54:37.140Z,14.30
2018-04-23T05:57:05.369Z,17.90
2018-04-23T05:59:32.856Z,14.10
2018-04-23T06:02:00.324Z,12.40
2018-04-23T06:04:27.842Z,12.77
2018-04-23T06:06:55.332Z,12.03
2018-04-23T06:09:22.851Z,15.03
2018-04-23T06:11:50.341Z,17.73
2018-04-23T06:14:17.833Z,13.07
2018-04-23T06:16:46.096Z,15.50
2018-04-23T06:19:14.332Z,19.43
2018-04-23T06:21:41.816Z,22.77
2018-04-23T06:24:09.299Z,15.47
2018-04-23T06:26:37.535Z,19.97
2018-04-23T06:29:05.025Z,20.80
2018-04-23T06:31:33.264Z,12.17
2018-04-23T06:34:00.759Z,13.03
2018-04-23T06:36:29.003Z,9.87
2018-04-23T06:38:56.460Z,15.70
2018-04-23T06:41:23.999Z,13.83
2018-04-23T06:43:51.704Z,12.10
2018-04-23T06:46:19.225Z,14.57
2018-04-23T06:48:46.680Z,11.30
2018-04-23T06:51:14.164Z,11.20
2018-04-23T06:53:41.675Z,17.93
2018-04-23T06:56:09.127Z,10.93
2018-04-23T06:58:36.640Z,12.47
2018-04-23T07:01:04.130Z,12.90
2018-04-23T07:03:31.601Z,12.00
2018-04-23T07:05:59.101Z,11.37
2018-04-23T07:08:26.577Z,17.00
2018-04-23T07:10:54.052Z,20.03
2018-04-23T07:13:22.282Z,13.83
2018-04-23T07:15:49.778Z,11.93
2018-04-23T07:18:17.329Z,19.40
2018-04-23T07:20:44.819Z,14.53
2018-04-23T07:23:12.310Z,12.40
2018-04-23T07:25:39.774Z,13.03
2018-04-23T07:28:07.261Z,16.53
2018-04-23T07:30:34.765Z,8.37
2018-04-23T07:33:02.224Z,10.93
2018-04-23T07:35:29.695Z,12.67
2018-04-23T07:37:57.172Z,16.27
2018-04-23T07:40:24.630Z,12.83
2018-04-23T07:42:52.111Z,14.07
2018-04-23T07:45:20.350Z,15.97
2018-04-23T07:47:47.836Z,15.73
2018-04-23T07:50:15.312Z,12.47
2018-04-23T07:52:43.576Z,10.40
2018-04-23T07:55:11.365Z,11.20
2018-04-23T07:57:38.848Z,13.50
2018-04-23T08:00:06.320Z,8.87
2018-04-23T08:02:33.930Z,10.70
2018-04-23T08:05:01.437Z,15.87
2018-04-23T08:07:28.967Z,12.80
2018-04-23T08:09:56.457Z,11.67
2018-04-23T08:12:23.925Z,15.37
2018-04-23T08:14:51.410Z,15.60
2018-04-23T08:17:19.661Z,14.93
2018-04-23T08:19:47.300Z,11.40
2018-04-23T08:22:14.705Z,9.70
2018-04-23T08:24:42.986Z,14.30
2018-04-23T08:27:10.486Z,11.23
2018-04-23T08:29:37.950Z,15.33
2018-04-23T08:32:05.439Z,14.00
2018-04-23T08:34:32.892Z,17.43
2018-04-23T08:37:00.363Z,11.83
2018-04-23T08:39:28.637Z,15.23
2018-04-23T08:41:56.109Z,15.50
2018-04-23T08:44:23.571Z,13.27
2018-04-23T08:46:51.065Z,13.80
2018-04-23T08:49:18.564Z,14.23
2018-04-23T08:51:46.813Z,16.63
2018-04-23T08:54:15.113Z,14.40
2018-04-23T08:56:42.599Z,16.47
2018-04-23T08:59:10.831Z,14.03
2018-04-23T09:01:38.323Z,14.27
2018-04-23T09:04:06.564Z,14.90
2018-04-23T09:06:34.052Z,13.80
2018-04-23T09:09:02.356Z,14.10
2018-04-23T09:11:29.827Z,14.07
2018-04-23T09:13:57.297Z,14.63
2018-04-23T09:16:24.778Z,15.13
2018-04-23T09:18:52.253Z,15.43
2018-04-23T09:21:19.886Z,11.90
2018-04-23T09:23:47.370Z,16.27
2018-04-23T09:26:14.834Z,24.43
2018-04-23T09:28:43.070Z,15.77
2018-04-23T09:31:10.570Z,14.00
2018-04-23T09:33:38.073Z,12.23
2018-04-23T09:36:05.557Z,11.73
2018-04-23T09:38:33.070Z,16.70
2018-04-23T09:41:00.553Z,18.40
2018-04-23T09:43:28.044Z,11.37
2018-04-23T09:45:55.516Z,10.80
2018-04-23T09:48:23.004Z,9.00
2018-04-23T09:50:50.479Z,12.23
2018-04-23T09:53:17.960Z,11.43
2018-04-23T09:55:45.425Z,17.07
2018-04-23T09:58:12.933Z,11.47
2018-04-23T10:00:40.437Z,14.43
2018-04-23T10:03:09.667Z,14.57
2018-04-23T10:05:37.148Z,16.83
2018-04-23T10:08:04.627Z,13.77
2018-04-23T10:10:32.096Z,11.83
2018-04-23T10:12:59.562Z,11.90
2018-04-23T10:15:27.055Z,14.90
2018-04-23T10:17:55.274Z,16.70
2018-04-23T10:20:22.765Z,14.00
2018-04-23T10:22:50.252Z,9.73
2018-04-23T10:25:17.742Z,9.43
2018-04-23T10:27:45.227Z,10.60
2018-04-23T10:30:12.713Z,11.83
2018-04-23T10:32:40.184Z,14.13
2018-04-23T10:35:07.684Z,15.03
2018-04-23T10:37:35.159Z,12.10
2018-04-23T10:40:02.648Z,15.70
2018-04-23T10:42:30.885Z,9.90
2018-04-23T10:44:58.384Z,14.90
2018-04-23T10:47:26.614Z,13.33
2018-04-23T10:49:54.114Z,17.20
2018-04-23T10:52:22.372Z,10.90
2018-04-23T10:54:49.849Z,9.37
2018-04-23T10:57:18.094Z,12.67
2018-04-23T10:59:45.614Z,11.53
2018-04-23T11:02:13.094Z,12.37
2018-04-23T11:04:40.556Z,10.10
2018-04-23T11:07:08.093Z,10.63
2018-04-23T11:09:35.576Z,17.60
2018-04-23T11:12:03.053Z,18.33
2018-04-23T11:14:30.753Z,12.73
2018-04-23T11:16:59.088Z,17.17
2018-04-23T11:19:26.562Z,16.30
2018-04-23T11:21:54.824Z,10.90
2018-04-23T11:24:23.075Z,18.33
2018-04-23T11:26:50.540Z,9.20
2018-04-23T11:29:18.028Z,9.60
2018-04-23T11:31:46.259Z,12.17
2018-04-23T11:34:14.268Z,14.40
2018-04-23T11:36:42.511Z,11.50
2018-04-23T11:39:10.046Z,11.50
2018-04-23T11:41:37.511Z,13.77
2018-04-23T11:44:05.027Z,10.87
2018-04-23T11:46:32.511Z,11.23
2018-04-23T11:48:59.993Z,13.93
2018-04-23T11:51:27.478Z,13.90
2018-04-23T11:53:54.925Z,15.63
2018-04-23T11:56:22.413Z,14.50
2018-04-23T11:58:50.668Z,15.23
2018-04-23T12:01:24.542Z,14.43
2018-04-23T12:03:52.051Z,10.20
2018-04-23T12:06:20.294Z,6.87
2018-04-23T12:08:47.762Z,10.90
2018-04-23T12:11:15.296Z,8.27
2018-04-23T12:13:42.769Z,11.77
2018-04-23T12:16:10.270Z,13.40
2018-04-23T12:18:38.490Z,9.43
2018-04-23T12:21:05.958Z,14.33
2018-04-23T12:23:33.449Z,9.93
2018-04-23T12:26:01.707Z,9.13
2018-04-23T12:28:29.190Z,8.80
2018-04-23T12:30:56.681Z,16.00
2018-04-23T12:33:24.158Z,10.43
2018-04-23T12:35:51.648Z,8.20
2018-04-23T12:38:19.126Z,12.40
2018-04-23T12:40:46.616Z,7.60
2018-04-23T12:43:14.096Z,9.73
2018-04-23T12:45:41.584Z,9.80
2018-04-23T12:48:09.067Z,9.60
2018-04-23T12:50:36.536Z,7.20
2018-04-23T12:53:04.036Z,11.33
2018-04-23T12:55:31.510Z,12.00
2018-04-23T12:57:59.761Z,8.90
2018-04-23T13:00:27.463Z,11.50
2018-04-23T13:02:55.680Z,5.77
2018-04-23T13:05:23.646Z,5.57
2018-04-23T13:07:51.114Z,7.10
2018-04-23T13:10:18.602Z,8.87
2018-04-23T13:12:46.082Z,10.37
2018-04-23T13:15:13.534Z,4.10
2018-04-23T13:17:41.021Z,8.40
2018-04-23T13:20:08.476Z,9.37
2018-04-23T13:22:35.963Z,8.10
2018-04-23T13:25:03.457Z,8.90
2018-04-23T13:27:31.788Z,5.93
2018-04-23T13:29:59.282Z,11.33
2018-04-23T13:32:26.740Z,7.70
2018-04-23T13:34:54.211Z,7.17
2018-04-23T13:37:21.695Z,4.87
2018-04-23T13:39:49.182Z,7.23
2018-04-23T13:42:16.681Z,9.07
2018-04-23T13:44:44.924Z,10.13
2018-04-23T13:47:12.387Z,8.80
2018-04-23T13:49:39.875Z,10.23
2018-04-23T13:52:08.114Z,9.80
2018-04-23T13:54:35.575Z,9.40
2018-04-23T13:57:03.098Z,7.20
2018-04-23T13:59:30.562Z,7.10
2018-04-23T14:01:58.065Z,5.33
2018-04-23T14:04:25.533Z,14.07
2018-04-23T14:06:53.800Z,8.60
2018-04-23T14:09:21.299Z,10.93
2018-04-23T14:11:48.762Z,9.50
2018-04-23T14:14:16.249Z,11.73
2018-04-23T14:16:43.733Z,6.40
2018-04-23T14:19:11.216Z,6.07
2018-04-23T14:21:38.691Z,9.50
2018-04-23T14:24:06.176Z,9.77
2018-04-23T14:26:34.427Z,7.10
2018-04-23T14:29:01.930Z,6.17
2018-04-23T14:31:29.439Z,9.67
2018-04-23T14:33:56.926Z,11.23
2018-04-23T14:36:24.395Z,7.27
2018-04-23T14:38:51.894Z,6.27
2018-04-23T14:41:19.364Z,6.30
2018-04-23T14:43:46.884Z,6.33
2018-04-23T14:46:14.392Z,7.97
2018-04-23T14:48:42.175Z,8.70
2018-04-23T14:51:09.661Z,6.77
2018-04-23T14:53:37.179Z,6.50
2018-04-23T14:56:04.652Z,9.30
2018-04-23T14:58:32.137Z,7.17
2018-04-23T15:00:59.619Z,8.10
2018-04-23T15:03:27.081Z,5.73
2018-04-23T15:05:54.561Z,7.60
2018-04-23T15:08:22.079Z,6.50
2018-04-23T15:10:49.535Z,7.03
2018-04-23T15:13:17.002Z,12.60
2018-04-23T15:15:44.523Z,4.90
2018-04-23T15:18:11.998Z,8.80
2018-04-23T15:20:39.474Z,8.83
2018-04-23T15:23:06.961Z,6.63
2018-04-23T15:25:34.426Z,10.03
2018-04-23T15:28:01.937Z,8.23
2018-04-23T15:30:29.426Z,7.10
2018-04-23T15:32:56.897Z,7.60
2018-04-23T15:35:24.368Z,8.70
2018-04-23T15:37:51.854Z,6.50
2018-04-23T15:40:20.103Z,5.90
2018-04-23T15:42:47.575Z,5.90
2018-04-23T15:45:15.071Z,5.60
2018-04-23T15:47:42.537Z,7.73
2018-04-23T15:50:10.036Z,6.67
2018-04-23T15:52:37.543Z,7.57
2018-04-23T15:55:05.006Z,10.37
2018-04-23T15:57:32.494Z,11.93
2018-04-23T16:00:00.037Z,5.80
2018-04-23T16:02:27.519Z,4.67
2018-04-23T16:04:55.035Z,8.03
2018-04-23T16:07:22.544Z,4.90
2018-04-23T16:09:50.048Z,9.40
2018-04-23T16:12:17.505Z,6.17
2018-04-23T16:14:44.987Z,5.00
2018-04-23T16:17:12.464Z,5.70
2018-04-23T16:19:39.951Z,5.90
2018-04-23T16:22:07.438Z,7.43
2018-04-23T16:24:34.922Z,4.80
2018-04-23T16:27:02.406Z,6.90
2018-04-23T16:29:29.890Z,7.00
2018-04-23T16:31:57.408Z,11.53
2018-04-23T16:34:24.883Z,6.13
2018-04-23T16:36:52.372Z,5.53
2018-04-23T16:39:20.622Z,9.50
2018-04-23T16:41:48.121Z,4.90
2018-04-23T16:44:15.614Z,5.53
2018-04-23T16:46:43.101Z,4.63
2018-04-23T16:49:10.579Z,10.60
2018-04-23T16:51:38.850Z,5.47
2018-04-23T16:54:06.325Z,5.90
2018-04-23T16:56:33.809Z,5.30
2018-04-23T16:59:01.299Z,4.97
2018-04-23T17:01:28.809Z,5.77
2018-04-23T17:03:56.292Z,4.10
2018-04-23T17:06:23.766Z,4.13
2018-04-23T17:08:52.016Z,4.40
2018-04-23T17:11:19.514Z,8.20
2018-04-23T17:13:47.084Z,5.47
2018-04-23T17:16:15.644Z,7.17
2018-04-23T17:18:43.266Z,6.60
2018-04-23T17:21:12.455Z,5.27
2018-04-23T17:23:39.965Z,5.70
2018-04-23T17:26:07.461Z,6.93
2018-04-23T17:28:35.710Z,6.50
2018-04-23T17:31:03.213Z,4.50
2018-04-23T17:33:30.695Z,9.40
2018-04-23T17:35:58.190Z,5.40
2018-04-23T17:38:26.428Z,4.00
2018-04-23T17:40:53.916Z,6.23
2018-04-23T17:43:21.410Z,5.40
2018-04-23T17:45:48.908Z,8.10
2018-04-23T17:48:16.371Z,10.03
2018-04-23T17:50:44.220Z,6.90
2018-04-23T17:53:11.691Z,3.87
2018-04-23T17:55:39.156Z,5.10
2018-04-23T17:58:06.662Z,5.80
2018-04-23T18:00:34.181Z,8.57
2018-04-23T18:03:01.659Z,4.53
2018-04-23T18:05:30.893Z,4.63
2018-04-23T18:07:58.372Z,6.10
2018-04-23T18:10:25.850Z,9.80
2018-04-23T18:12:53.351Z,6.90
2018-04-23T18:15:20.854Z,5.87
2018-04-23T18:17:48.328Z,5.50
2018-04-23T18:20:15.821Z,5.60
2018-04-23T18:22:43.327Z,6.50
2018-04-23T18:25:10.818Z,8.03
2018-04-23T18:27:39.108Z,4.93
2018-04-23T18:30:06.611Z,3.60
2018-04-23T18:32:34.117Z,8.10
2018-04-23T18:35:01.608Z,7.33
2018-04-23T18:37:29.084Z,5.47
2018-04-23T18:39:56.579Z,5.83
2018-04-23T18:42:24.849Z,6.73
2018-04-23T18:44:53.133Z,9.17
2018-04-23T18:47:21.366Z,4.23
2018-04-23T18:49:49.636Z,5.27
2018-04-23T18:52:17.120Z,5.33
2018-04-23T18:54:44.661Z,7.83
2018-04-23T18:57:12.178Z,5.87
2018-04-23T18:59:40.409Z,4.90
2018-04-23T19:02:07.878Z,7.07
2018-04-23T19:04:35.375Z,5.17
2018-04-23T19:07:02.874Z,7.73
2018-04-23T19:09:30.393Z,5.10
2018-04-23T19:11:58.633Z,7.50
2018-04-23T19:14:26.113Z,8.93
2018-04-23T19:16:53.578Z,6.00
2018-04-23T19:19:21.089Z,8.23
2018-04-23T19:21:48.660Z,8.50
2018-04-23T19:24:16.113Z,7.73
2018-04-23T19:26:43.602Z,6.50
2018-04-23T19:29:11.838Z,6.70
2018-04-23T19:31:39.445Z,8.13
2018-04-23T19:34:06.903Z,5.67
2018-04-23T19:36:34.417Z,5.77
2018-04-23T19:39:01.904Z,8.20
2018-04-23T19:41:30.179Z,4.83
2018-04-23T19:43:58.411Z,7.23
2018-04-23T19:46:25.881Z,5.63
2018-04-23T19:48:53.356Z,4.87
2018-04-23T19:51:20.857Z,6.83
2018-04-23T19:53:48.631Z,9.60
2018-04-23T19:56:16.157Z,4.90
2018-04-23T19:58:43.656Z,4.80
2018-04-23T20:01:11.134Z,4.13
2018-04-23T20:03:38.637Z,9.40
2018-04-23T20:06:06.883Z,5.53
2018-04-23T20:08:34.376Z,5.17
2018-04-23T20:11:01.850Z,6.27
2018-04-23T20:13:29.321Z,8.00
2018-04-23T20:15:56.805Z,8.20
2018-04-23T20:18:24.294Z,15.53
2018-04-23T20:20:51.816Z,7.43
2018-04-23T20:23:19.292Z,8.00
2018-04-23T20:25:46.805Z,7.30
2018-04-23T20:28:14.312Z,10.07
2018-04-23T20:30:42.542Z,10.60
2018-04-23T20:33:10.811Z,6.77
2018-04-23T20:35:38.316Z,10.47
2018-04-23T20:38:06.617Z,8.47
2018-04-23T20:40:34.122Z,9.33
2018-04-23T20:43:01.593Z,6.50
2018-04-23T20:45:30.230Z,13.67
2018-04-23T20:47:57.716Z,6.13
2018-04-23T20:50:25.207Z,5.53
2018-04-23T20:52:52.681Z,9.47
2018-04-23T20:55:20.177Z,10.30
2018-04-23T20:57:47.667Z,9.13
2018-04-23T21:00:15.136Z,7.83
2018-04-23T21:02:42.626Z,7.00
2018-04-23T21:05:10.093Z,6.53
2018-04-23T21:07:37.578Z,6.70
2018-04-23T21:10:05.081Z,7.27
2018-04-23T21:12:33.304Z,6.50
2018-04-23T21:15:00.778Z,5.60
2018-04-23T21:17:28.272Z,5.00
2018-04-23T21:19:55.743Z,6.00
2018-04-23T21:22:23.260Z,7.80
2018-04-23T21:24:50.707Z,7.43
2018-04-23T21:27:18.172Z,7.60
2018-04-23T21:29:45.643Z,5.77
2018-04-23T21:32:13.149Z,10.20
2018-04-23T21:34:40.604Z,8.50
2018-04-23T21:37:08.066Z,8.07
2018-04-23T21:39:35.556Z,5.23
2018-04-23T21:42:03.075Z,5.30
2018-04-23T21:44:30.543Z,9.03
2018-04-23T21:46:58.033Z,5.70
2018-04-23T21:49:25.510Z,3.83
2018-04-23T21:51:52.981Z,7.03
2018-04-23T21:54:21.236Z,4.40
2018-04-23T21:56:48.718Z,4.07
2018-04-23T21:59:16.252Z,6.50
2018-04-23T22:01:43.747Z,5.13
2018-04-23T22:04:11.197Z,4.70
2018-04-23T22:06:38.669Z,4.23
2018-04-23T22:09:06.159Z,5.50
2018-04-23T22:11:33.608Z,5.60
2018-04-23T22:14:01.094Z,7.07
2018-04-23T22:16:28.579Z,10.07
2018-04-23T22:18:56.811Z,4.57
2018-04-23T22:21:24.282Z,7.50
2018-04-23T22:23:51.769Z,10.70
2018-04-23T22:26:19.989Z,8.10
2018-04-23T22:28:47.508Z,5.20
2018-04-23T22:31:15.750Z,5.73
2018-04-23T22:33:43.228Z,5.53
2018-04-23T22:36:11.474Z,9.37
2018-04-23T22:38:38.950Z,7.60
2018-04-23T22:41:06.405Z,5.43
2018-04-23T22:43:34.658Z,7.87
2018-04-23T22:46:02.231Z,6.60
2018-04-23T22:48:29.699Z,5.07
2018-04-23T22:50:57.183Z,9.13
2018-04-23T22:53:24.669Z,7.30
2018-04-23T22:55:52.124Z,6.60
2018-04-23T22:58:19.601Z,5.70
2018-04-23T23:00:47.092Z,5.60
2018-04-23T23:03:15.318Z,5.47
2018-04-23T23:05:42.772Z,5.30
2018-04-23T23:08:10.268Z,6.10
2018-04-23T23:10:37.743Z,6.60
2018-04-23T23:13:05.207Z,10.07
2018-04-23T23:15:32.687Z,7.00
2018-04-23T23:18:00.162Z,6.47
2018-04-23T23:20:27.608Z,6.67
2018-04-23T23:22:55.129Z,4.40
2018-04-23T23:25:23.372Z,5.13
2018-04-23T23:27:50.836Z,5.13
2018-04-23T23:30:18.327Z,5.73
2018-04-23T23:32:46.572Z,10.13
2018-04-23T23:35:14.032Z,7.40
2018-04-23T23:37:41.519Z,6.70
2018-04-23T23:40:09.006Z,7.13
2018-04-23T23:42:36.469Z,6.70
2018-04-23T23:45:03.945Z,10.23
2018-04-23T23:47:31.427Z,7.30
2018-04-23T23:49:58.898Z,7.00
2018-04-23T23:52:27.140Z,4.50
2018-04-23T23:54:54.608Z,7.17
2018-04-23T23:57:22.075Z,8.57
2018-04-23T23:59:49.540Z,4.73
